Date,TemperatureHighF,TemperatureAvgF,TemperatureLowF,DewpointHighF,DewpointAvgF,DewpointLowF,HumidityHigh,HumidityAvg,HumidityLow,PressureMaxIn,PressureMinIn,WindSpeedMaxMPH,WindSpeedAvgMPH,GustSpeedMaxMPH,PrecipitationSumIn
2013-1-2,23,22,20,20,17,17,92,84,78,30.53,30.47,4,1,0,0.00
2013-1-3,22,21,19,18,16,15,85,83,81,30.42,30.35,1,0,0,0.00
2013-1-4,33,20,11,21,14,8,89,80,58,30.39,30.26,2,0,0,0.00
2013-1-5,21,17,14,19,14,11,90,90,89,30.31,30.29,0,0,0,0.00
2013-1-6,35,26,17,28,23,15,92,86,75,30.21,30.06,1,0,0,0.00
2013-1-7,56,41,29,40,32,26,92,73,43,30.10,29.93,12,2,0,0.00
2013-1-8,59,46,36,42,36,32,87,71,52,30.13,29.91,6,1,0,0.00
2013-1-9,54,44,29,37,30,24,80,59,41,29.92,29.69,12,4,0,0.00
2013-1-10,29,26,24,24,22,21,88,85,82,29.91,29.89,2,0,0,0.00
2013-1-11,26,23,20,22,19,17,89,86,82,30.13,29.98,0,0,0,0.00
2013-1-12,33,22,14,17,14,10,88,74,52,30.32,30.22,5,1,0,0.00
2013-1-13,32,20,12,18,13,7,82,72,53,30.41,30.30,5,1,0,0.00
2013-1-14,42,25,13,21,15,9,87,70,42,30.41,30.30,3,0,0,0.00
2013-1-15,46,30,19,29,22,16,90,76,50,30.56,30.43,4,0,0,0.00
2013-1-16,23,21,20,20,19,18,91,90,88,30.56,30.54,0,0,0,0.00
2013-1-17,29,24,20,26,22,18,94,92,89,30.50,30.41,3,0,0,0.00
2013-1-18,21,20,20,19,18,18,92,92,91,30.38,30.36,0,0,0,0.00
2013-1-19,23,22,21,20,20,19,91,90,89,30.34,30.32,0,0,0,0.00
2013-1-20,37,24,17,29,21,15,99,89,73,30.46,30.33,3,0,0,0.00
2013-1-21,22,19,16,20,17,14,92,91,90,30.36,30.35,0,0,0,0.00
2013-1-22,24,24,23,22,22,21,93,92,92,30.25,30.24,0,0,0,0.00
2013-1-23,35,29,25,28,25,22,90,84,69,30.12,29.91,4,0,0,0.00
2013-1-24,47,28,20,36,25,18,93,87,66,30.19,30.09,4,0,0,0.00
2013-1-25,37,35,33,34,32,31,92,89,87,30.10,30.05,1,0,0,0.00
2013-1-26,50,37,27,37,30,25,95,78,44,30.01,29.87,7,1,0,0.00
2013-1-27,34,28,26,29,25,23,91,88,83,30.06,30.01,1,0,0,0.00
2013-1-28,33,32,31,28,28,27,88,85,82,30.01,29.97,1,0,0,0.00
2013-1-29,50,44,36,36,34,32,86,68,58,30.33,30.06,11,3,0,0.00
2013-1-30,53,43,35,39,35,32,87,74,56,30.35,30.33,3,0,0,0.00
2013-1-31,56,42,29,39,34,27,94,76,49,30.35,30.25,6,1,0,0.00
2013-2-1,33,30,27,30,28,25,93,92,89,30.29,30.29,1,0,0,0.00
2013-2-2,49,34,23,36,29,21,94,83,56,30.41,30.25,2,0,0,0.00
2013-2-3,52,37,23,38,31,21,94,81,56,30.26,30.12,1,0,0,0.00
2013-2-4,38,34,31,34,31,28,90,87,83,30.13,30.12,1,0,0,0.00
2013-2-5,37,33,31,32,30,28,91,88,83,29.92,29.88,1,0,0,0.00
2013-2-6,35,34,34,32,31,31,90,89,87,30.04,30.01,1,0,0,0.00
2013-2-7,47,38,30,31,28,24,88,70,44,30.06,29.86,6,2,0,0.00
2013-2-8,29,24,20,25,21,18,91,89,84,30.13,30.06,1,0,0,0.00
2013-2-9,49,36,21,33,27,18,89,71,50,30.19,30.09,12,3,0,0.00
2013-2-10,52,36,23,34,27,21,92,71,39,30.28,30.16,5,1,0,0.00
2013-2-11,30,25,22,26,22,20,92,89,80,30.24,30.19,1,0,0,0.00
2013-2-12,57,41,28,37,30,25,89,69,38,30.37,30.30,14,2,0,0.00
2013-2-13,55,40,32,38,32,28,88,74,47,30.41,30.32,14,2,0,0.00
2013-2-14,57,39,25,41,33,23,93,78,52,30.49,30.40,10,2,0,0.00
2013-2-15,60,40,26,40,33,24,94,77,47,30.47,30.22,3,1,0,0.00
2013-2-16,55,38,25,38,30,23,94,77,41,30.23,30.10,12,2,0,0.00
2013-2-17,47,36,25,30,26,22,88,69,44,30.19,30.05,11,3,0,0.00
2013-2-18,43,34,25,29,26,22,89,72,54,30.05,29.74,5,0,0,0.00
2013-2-19,49,34,23,31,25,20,89,72,45,29.92,29.70,7,1,0,0.00
2013-2-20,27,22,20,23,20,18,91,89,83,30.03,29.92,0,0,0,0.00
2013-2-21,46,38,27,31,28,24,88,68,50,30.10,30.02,6,1,0,0.00
2013-2-22,51,44,36,35,31,26,76,61,51,30.10,29.81,10,4,0,0.00
2013-2-23,46,36,23,30,25,20,89,66,41,30.33,29.96,12,4,0,0.00
2013-2-24,52,36,22,29,25,19,89,65,38,30.36,30.03,9,1,0,0.00
2013-2-25,51,41,29,37,30,22,82,65,35,30.28,29.96,15,4,0,0.00
2013-2-26,52,38,21,31,23,17,92,61,25,30.33,30.16,5,1,0,0.00
2013-2-27,38,36,35,29,28,27,72,71,70,30.21,30.19,4,3,0,0.00
2013-2-28,63,50,41,43,39,34,82,67,46,30.39,30.18,7,2,0,0.00
2013-3-1,62,45,38,41,38,34,89,77,44,30.41,30.38,5,1,0,0.00
2013-3-2,54,46,37,40,37,32,92,72,55,30.27,30.06,9,0,0,0.00
2013-3-3,51,41,30,33,24,18,69,52,28,30.22,30.09,15,5,0,0.00
2013-3-4,54,35,18,25,20,15,87,58,30,30.22,29.96,6,1,0,0.00
2013-3-5,47,37,28,34,26,21,84,66,47,29.96,29.75,7,1,0,0.00
2013-3-6,45,38,33,39,33,28,94,83,66,29.91,29.54,3,0,0,0.00
2013-3-7,53,40,28,33,29,24,87,67,39,30.03,29.91,7,2,0,0.00
2013-3-8,54,40,26,34,28,24,91,66,38,30.04,29.98,7,2,0,0.00
2013-3-9,62,41,22,30,26,20,91,60,25,30.42,30.16,10,2,0,0.00
2013-3-10,63,44,27,42,32,23,86,64,33,30.44,30.27,9,2,0,0.00
2013-3-11,59,47,39,45,40,36,90,77,59,30.33,30.19,3,0,0,0.00
2013-3-12,68,49,34,44,38,32,94,70,31,30.21,30.06,8,2,0,0.00
2013-3-13,71,54,43,43,40,37,82,61,32,30.19,30.07,7,1,0,0.00
2013-3-14,73,53,40,44,37,26,90,61,22,30.15,30.00,10,2,0,0.00
2013-3-15,63,50,38,43,38,34,89,65,40,30.19,30.10,10,1,0,0.00
2013-3-16,57,44,33,39,34,30,90,69,41,30.12,29.89,10,3,0,0.00
2013-3-17,47,40,33,32,26,22,88,59,41,30.17,30.01,16,4,0,0.00
2013-3-18,54,40,28,31,28,24,86,63,32,30.20,30.10,10,3,0,0.00
2013-3-19,51,40,31,37,29,25,88,66,39,30.15,29.77,7,1,0,0.00
2013-3-20,55,43,36,46,36,27,95,76,47,30.06,29.57,16,4,0,0.00
2013-3-21,38,33,29,29,24,21,79,69,52,30.12,30.06,6,2,0,0.00
2013-3-22,45,36,24,28,24,18,88,64,37,30.29,30.18,12,4,0,0.00
2013-3-23,49,37,28,28,24,19,83,61,35,30.30,30.18,5,1,0,0.00
2013-3-24,51,39,28,29,26,22,84,61,39,30.24,30.09,7,2,0,0.00
2013-3-25,56,45,32,33,29,25,79,54,41,30.10,29.90,9,2,0,0.00
2013-3-26,48,47,46,32,31,30,58,55,52,29.95,29.94,4,3,0,0.00
2013-3-27,62,49,36,46,40,33,90,72,48,29.98,29.87,8,2,0,0.00
2013-3-28,64,52,42,48,43,39,91,74,46,30.10,29.97,9,2,0,0.00
2013-3-29,69,56,48,47,46,43,87,70,43,30.19,30.10,6,2,0,0.00
2013-3-30,73,55,35,48,41,-100,94,66,35,30.22,30.02,10,2,0,0.00
2013-3-31,72,57,37,46,40,34,88,56,33,30.05,29.88,9,3,0,0.00
2013-4-1,69,56,42,48,44,39,90,66,44,30.10,29.93,13,5,0,0.00
2013-4-2,70,52,35,45,40,33,93,67,39,30.16,30.06,14,3,0,0.00
2013-4-3,71,54,34,44,38,32,92,61,29,30.15,29.93,4,1,0,0.00
2013-4-4,64,56,49,54,45,42,83,67,53,29.93,29.69,10,2,0,0.00
2013-4-5,62,54,47,42,41,39,81,62,46,29.93,29.86,9,3,0,0.00
2013-4-6,50,49,48,41,41,40,76,72,68,29.86,29.84,1,0,0,0.00
2013-4-7,54,48,38,43,35,28,93,63,44,29.85,29.61,17,5,0,0.00
2013-4-8,55,44,32,35,31,27,85,63,42,30.21,29.85,13,5,0,0.00
2013-4-9,65,47,28,39,32,25,89,60,28,30.31,30.19,10,2,0,0.00
2013-4-10,64,52,42,47,38,31,84,61,38,30.21,30.04,16,5,0,0.00
2013-4-11,56,46,30,35,32,26,86,59,40,30.24,30.11,15,6,0,0.00
2013-4-12,65,47,27,37,31,24,89,59,26,30.13,29.73,7,2,0,0.00
2013-4-13,53,47,40,36,27,22,60,46,34,30.01,29.74,18,7,0,0.00
2013-4-14,49,40,30,37,29,23,87,67,44,30.02,29.84,11,1,0,0.00
2013-4-15,48,39,32,36,32,28,91,76,55,30.09,29.87,11,3,0,0.00
2013-4-16,52,42,31,36,30,24,90,66,35,30.33,30.09,10,3,0,0.00
2013-4-17,59,44,25,33,28,22,89,58,28,30.42,30.33,10,2,0,0.00
2013-4-18,65,51,38,43,37,30,78,59,42,30.38,30.24,12,3,0,0.00
2013-4-19,64,54,44,45,41,35,83,62,40,30.24,30.07,16,4,0,0.00
2013-4-20,63,51,38,39,36,33,86,60,38,30.22,30.14,13,5,0,0.00
2013-4-21,64,49,33,42,37,30,89,64,42,30.22,30.09,15,5,0,0.00
2013-4-22,57,48,41,37,32,23,77,57,28,30.40,30.22,9,4,0,0.00
2013-4-23,66,47,24,25,21,17,75,41,16,30.38,30.09,11,4,0,0.00
2013-4-24,72,52,27,30,25,19,71,38,18,30.30,29.99,6,2,0,0.00
2013-4-25,76,57,36,41,34,27,73,46,27,30.10,29.98,11,3,0,0.00
2013-4-26,83,62,37,43,37,31,81,44,19,30.22,30.10,11,2,0,0.00
2013-4-27,80,61,40,43,36,31,78,44,20,30.22,30.08,11,3,0,0.00
2013-4-28,68,59,50,40,36,33,62,43,29,30.18,30.00,14,5,0,0.00
2013-4-29,60,56,42,42,34,27,56,45,32,30.09,29.93,13,7,0,0.00
2013-4-30,53,45,38,29,25,22,59,46,33,30.36,30.09,14,7,0,0.00
2013-5-1,67,49,26,31,26,21,81,46,18,30.50,30.36,6,2,0,0.00
2013-5-2,79,60,36,34,30,26,67,35,15,30.50,30.20,6,2,0,0.00
2013-5-3,75,62,40,39,35,32,73,40,23,30.27,30.12,9,3,0,0.00
2013-5-4,74,60,39,39,34,31,78,42,21,30.16,29.93,19,8,0,0.00
2013-5-5,78,65,47,39,35,32,57,34,23,29.94,29.77,12,5,0,0.00
2013-5-6,85,68,44,46,39,35,71,38,18,29.86,29.72,9,3,0,0.00
2013-5-7,85,69,50,51,45,41,75,46,22,29.94,29.80,13,4,0,0.00
2013-5-8,88,68,46,51,46,41,84,49,21,30.04,29.91,11,3,0,0.00
2013-5-9,90,71,49,52,46,42,80,46,20,30.12,29.98,6,2,0,0.00
2013-5-10,94,72,50,54,45,-100,74,43,20,30.18,30.03,9,2,0,0.00
2013-5-11,94,76,58,54,50,-100,69,45,22,30.16,29.96,7,2,0,0.00
2013-5-12,85,72,57,55,50,45,78,48,30,30.07,29.96,13,4,0,0.00
2013-5-13,71,61,47,51,43,35,74,54,32,30.15,30.01,12,4,0,0.00
2013-5-14,73,58,42,41,37,33,79,50,26,30.16,30.00,9,3,0,0.00
2013-5-15,65,56,45,46,40,35,72,56,36,30.07,29.97,11,4,0,0.00
2013-5-16,70,52,43,49,30,-100,90,68,36,30.00,29.84,11,2,0,0.00
2013-5-17,63,54,45,49,41,-100,94,71,40,30.04,29.93,11,2,0,0.00
2013-5-18,62,52,40,45,41,36,87,67,48,30.21,30.04,13,3,0,0.00
2013-5-19,68,54,38,44,39,34,89,61,33,30.31,30.21,15,5,0,0.00
2013-5-20,80,60,38,49,39,32,80,50,22,30.29,29.85,10,3,0,0.00
2013-5-21,64,54,45,45,37,28,81,55,32,29.90,29.73,13,5,0,0.00
2013-5-22,53,46,34,35,31,26,74,56,45,29.93,29.88,6,2,0,0.00
2013-5-23,62,50,34,40,34,29,82,55,33,29.99,29.91,9,2,0,0.00
2013-5-24,62,53,44,39,36,32,76,54,33,30.03,29.95,10,3,0,0.00
2013-5-25,71,55,35,51,38,30,89,58,31,30.04,29.89,8,2,0,0.00
2013-5-26,67,57,49,52,47,40,95,71,42,30.00,29.93,9,2,0,0.00
2013-5-27,70,54,44,52,45,38,92,73,45,29.99,29.74,7,2,0,0.00
2013-5-28,71,60,51,47,43,37,83,55,33,29.87,29.75,6,2,0,0.00
2013-5-29,67,56,49,50,44,40,94,67,39,30.00,29.68,11,3,0,0.00
2013-5-30,64,53,39,42,39,35,89,61,39,30.19,29.99,12,4,0,0.00
2013-5-31,74,58,38,44,39,33,86,54,29,30.28,30.14,8,2,0,0.00
2013-6-1,81,65,47,50,45,41,79,52,27,30.20,29.97,11,3,0,0.00
2013-6-2,74,63,49,49,44,39,83,54,29,30.02,29.93,16,5,0,0.00
2013-6-3,83,64,43,45,40,36,79,46,21,30.06,29.93,13,3,0,0.00
2013-6-4,84,68,44,46,39,30,60,37,22,30.10,29.97,8,2,0,0.00
2013-6-5,93,70,49,50,44,39,72,43,23,30.07,29.91,4,1,0,0.00
2013-6-6,93,75,56,53,48,45,70,43,20,30.01,29.88,15,4,0,0.00
2013-6-7,88,72,54,54,50,46,75,48,29,30.07,29.95,20,5,0,0.00
2013-6-8,89,72,51,50,45,38,69,42,18,30.09,29.95,15,5,0,0.00
2013-6-9,83,70,53,49,42,35,67,39,18,30.00,29.86,17,4,0,0.00
2013-6-10,82,64,44,44,40,34,73,45,19,29.93,29.74,15,4,0,0.00
2013-6-11,67,58,45,43,39,35,79,51,31,30.08,29.87,14,5,0,0.00
2013-6-12,66,56,43,41,39,36,79,55,36,30.11,30.05,12,4,0,0.00
2013-6-13,65,54,39,46,40,35,86,63,40,30.22,30.10,12,3,0,0.00
2013-6-14,78,60,37,43,38,34,87,50,23,30.24,29.96,5,1,0,0.00
2013-6-15,88,69,44,53,43,37,76,43,17,29.98,29.81,12,3,0,0.00
2013-6-16,88,71,58,59,49,45,66,47,23,30.06,29.91,11,4,0,0.00
2013-6-17,82,66,52,55,49,46,81,55,30,30.07,29.86,9,2,0,0.00
2013-6-18,68,61,55,51,46,42,68,58,40,29.95,29.86,9,3,0,0.00
2013-6-19,67,58,52,45,42,39,77,56,37,30.04,29.89,13,5,0,0.00
2013-6-20,66,55,46,42,39,37,72,56,36,30.05,29.98,8,2,0,0.00
2013-6-21,67,66,65,43,43,42,44,43,41,30.09,30.07,6,4,0,0.00
2013-6-22,81,73,43,48,44,38,84,37,27,30.10,29.84,9,3,0,0.00
2013-6-23,74,67,58,60,52,45,93,62,40,29.86,29.67,6,1,0,0.00
2013-6-24,68,59,55,56,52,49,96,79,53,29.73,29.65,6,1,0,0.00
2013-6-25,72,61,55,58,54,52,95,80,53,29.89,29.71,5,1,0,0.00
2013-6-26,74,65,56,58,55,52,89,72,52,30.06,29.89,8,1,0,0.00
2013-6-27,88,72,55,61,56,52,89,59,35,30.16,30.06,7,2,0,0.00
2013-6-28,97,79,61,63,59,55,84,54,27,30.19,29.98,12,2,0,0.00
2013-6-29,93,82,71,61,58,52,65,46,31,30.06,29.95,11,4,0,0.00
2013-6-30,101,83,61,61,56,51,74,43,24,30.04,29.84,11,2,0,0.00
2013-7-1,105,89,75,66,60,55,65,41,22,29.99,29.88,12,3,0,0.00
2013-7-2,105,86,69,65,61,53,70,46,21,30.04,29.90,16,4,0,0.00
2013-7-3,93,80,64,59,49,30,72,37,14,30.07,29.93,15,5,0,0.00
2013-7-4,85,72,55,48,42,36,60,37,20,30.04,29.90,14,6,0,0.00
2013-7-5,80,67,48,48,42,36,79,45,24,29.98,29.85,17,8,0,0.00
2013-7-6,88,67,48,52,41,36,64,43,18,29.94,29.77,11,3,0,0.00
2013-7-7,93,74,56,54,49,44,75,44,20,29.91,29.75,16,4,0,0.00
2013-7-8,92,72,53,51,45,-100,73,44,20,30.03,29.90,9,2,0,0.00
2013-7-9,98,79,56,54,48,44,68,38,19,30.09,29.90,11,3,0,0.00
2013-7-10,97,78,61,55,48,-100,65,38,18,30.00,29.81,17,4,0,0.00
2013-7-11,85,71,55,52,43,29,75,41,15,29.97,29.86,11,4,0,0.00
2013-7-12,82,66,47,47,39,33,63,40,18,30.04,29.88,19,4,0,0.00
2013-7-13,86,69,47,44,37,26,76,36,15,30.14,29.98,8,2,0,0.00
2013-7-14,94,74,48,48,37,28,48,27,15,30.11,29.88,12,4,0,0.00
2013-7-15,91,74,54,44,41,38,57,33,18,29.98,29.81,11,4,0,0.00
2013-7-16,90,77,66,51,43,38,45,30,22,29.92,29.80,9,4,0,0.00
2013-7-17,95,78,58,52,48,41,66,39,17,30.10,29.91,11,4,0,0.00
2013-7-18,98,77,56,52,45,34,60,37,14,30.15,29.96,11,3,0,0.00
2013-7-19,100,79,55,46,36,27,44,23,11,30.08,29.89,11,3,0,0.00
2013-7-20,97,78,55,44,33,-100,37,21,10,30.00,29.84,10,4,0,0.00
2013-7-21,97,79,48,47,37,21,42,23,14,29.92,29.80,14,4,0,0.00
2013-7-22,97,76,52,47,42,33,62,34,15,29.96,29.87,11,3,0,0.00
2013-7-23,99,78,51,48,38,29,53,27,11,30.02,29.85,13,3,0,0.00
2013-7-24,80,68,57,46,39,35,48,35,24,30.03,29.98,5,1,0,0.00
2013-7-25,102,80,55,47,40,31,56,28,10,30.05,29.93,14,3,0,0.00
2013-7-26,99,77,58,42,35,27,41,24,9,30.08,29.97,13,3,0,0.00
2013-7-27,89,73,51,44,39,29,67,32,13,30.10,29.91,16,5,0,0.00
2013-7-28,86,70,46,46,40,33,62,36,21,29.97,29.84,16,5,0,0.00
2013-7-29,92,71,49,51,44,38,72,42,16,29.97,29.83,13,3,0,0.00
2013-7-30,91,74,54,53,45,37,65,39,16,30.09,29.96,11,3,0,0.00
2013-7-31,88,76,64,52,48,39,61,40,19,30.06,29.92,10,2,0,0.00
2013-8-1,79,68,60,55,51,47,67,56,40,30.04,29.94,19,6,0,0.00
2013-8-2,83,64,48,52,47,43,82,57,26,30.10,29.97,14,3,0,0.00
2013-8-3,89,72,50,51,46,37,78,46,17,30.10,29.93,6,2,0,0.00
2013-8-4,95,78,56,57,50,47,72,42,20,30.04,29.85,11,3,0,0.00
2013-8-5,95,78,62,56,52,49,63,43,21,30.00,29.86,10,3,0,0.00
2013-8-6,74,73,73,51,50,50,45,45,44,29.95,29.95,3,2,0,0.00
2013-9-1,97,77,56,56,51,48,75,45,20,29.89,29.70,15,4,0,0.00
2013-9-2,89,73,59,57,54,50,73,52,27,29.92,29.77,16,6,0,0.00
2013-9-3,86,71,56,56,53,50,82,55,31,29.97,29.86,15,5,0,0.00
2013-9-4,88,71,54,56,53,48,81,56,29,30.01,29.87,18,4,0,0.00
2013-9-5,82,65,54,56,52,47,84,65,37,30.04,29.84,9,2,0,0.00
2013-9-6,73,62,54,57,52,48,93,71,48,30.12,30.03,11,3,0,0.00
2013-9-7,81,63,48,54,48,-100,88,63,39,30.12,29.94,8,2,0,0.00
2013-9-8,83,69,54,55,52,48,85,57,32,30.09,29.98,5,1,0,0.00
2013-9-9,89,72,50,55,50,46,85,51,26,30.05,29.88,5,1,0,0.00
2013-9-11,93,77,56,56,51,48,79,43,23,30.04,29.91,9,2,0,0.00
2013-9-12,96,78,55,55,51,48,77,42,22,30.01,29.83,7,2,0,0.00
2013-9-13,92,74,54,56,49,43,70,43,27,29.92,29.77,8,1,0,0.00
2013-9-14,94,75,52,55,47,-100,75,42,23,29.87,29.70,8,1,0,0.00
2013-9-15,95,73,58,58,52,49,74,51,26,29.84,29.59,17,5,0,0.00
2013-9-16,75,63,50,52,48,45,84,62,38,29.95,29.85,12,4,0,0.00
2013-9-17,69,59,52,50,46,40,81,62,40,29.95,29.79,14,3,0,0.00
2013-9-18,60,50,45,43,41,40,82,72,52,30.05,29.96,3,0,0,0.00
2013-9-19,82,62,41,43,40,36,84,51,22,30.06,29.80,8,2,0,0.00
2013-9-20,81,61,42,53,43,36,88,54,25,29.82,29.58,10,3,0,0.00
2013-9-21,71,58,48,53,46,-100,94,70,39,29.76,29.66,8,2,0,0.00
2013-10-2,58,44,32,40,36,29,92,73,47,30.18,30.00,8,1,14,0.00
2013-10-3,61,49,36,40,37,32,89,66,44,30.38,30.11,4,1,5,0.00
2013-10-4,65,47,31,41,35,29,91,67,34,30.49,30.35,4,1,0,0.00
2013-10-5,70,51,32,40,36,29,90,60,28,30.39,30.17,6,1,0,0.00
2013-10-6,76,52,33,44,38,31,92,64,27,30.21,29.93,2,0,0,0.00
2013-10-7,62,54,46,44,38,34,73,56,39,30.07,29.93,11,4,0,0.00
2013-10-8,47,40,37,38,36,33,89,83,69,30.08,30.04,2,0,0,0.00
2013-10-9,53,45,36,39,37,33,90,72,55,30.07,29.95,4,1,0,0.00
2013-10-10,62,49,36,41,38,33,90,68,41,30.04,29.91,12,2,0,0.00
2013-10-18,65,45,29,41,34,27,92,69,37,30.30,30.14,3,0,0,0.00
2013-10-19,72,47,29,44,33,-100,92,66,33,30.18,30.03,3,0,0,0.00
2013-10-20,74,50,31,41,36,28,90,63,29,30.19,30.07,4,0,0,0.00
2013-10-21,73,50,33,43,37,30,91,66,33,30.20,30.07,5,0,0,0.00
2013-10-22,72,52,33,44,39,31,92,65,33,30.19,30.02,5,1,0,0.00
2013-10-23,71,51,34,45,40,32,92,68,38,30.13,30.00,5,1,0,0.00
2013-10-24,70,51,34,46,40,32,93,69,39,30.13,30.01,2,0,0,0.00
2013-10-25,71,52,33,45,40,31,94,66,38,30.22,30.15,2,0,0,0.00
2013-10-26,68,47,32,45,36,-100,94,72,41,30.28,30.10,4,1,0,0.00
2013-10-27,58,46,33,46,39,31,93,79,48,30.11,29.74,12,4,0,0.00
2013-10-28,49,43,35,43,27,-100,82,56,41,29.94,29.80,14,8,0,0.00
2013-10-29,52,36,24,28,24,20,87,64,32,30.04,29.94,5,1,0,0.00
2013-10-30,61,38,23,35,28,20,89,68,35,30.13,30.03,5,1,0,0.00